Counselor, New Mexico
Current Conditions -  °F | °C
As of 7:53 AM on Tuesday 21 Oct 2014 (Local Time) from KFMN Reporting Station
Overcast Overcast  
Wind Chill: 51°   Ceiling: 9500
Heat Index: 51°   Visibility: 10mi
Dew Point: 44°   Wind: 7mph
Humidity: 77%   Direction: 120°ESE
Pressure: 30.13"   Gusts: NA
Location:  36.21°N, 107.46°W
Report Text: KFMN 211353Z 12006KT 10SM OVC095 11/07 A3013 RMK AO2 SLP175 T01060067
Loading
Personal Weather Stations






























Interactive Weather Map
Tropical Storm Tracking
New forecast layout! Learn more

10-Day Weather Forecast

Advertisements
Track Severe Weather on mobile